Stacy, NC (28581)

1:08 AM EDT on September 01, 2015 (GMT -0400)
Core Sound's 2 West Shore Heel of Rock Jetty | | Change Station
CLOSE
Current Station
Personal Weather Station
Location: Davis, NC
Elevation: 13 ft
Nearby Weather Stations

Elev 13 ft 34.80 °N, 76.46 °W | Updated 2 minutes ago

Overcast
Overcast
77.0 °F
Feels Like 78 °F
N
3.0
Wind Variable Wind from WSW
Gusts 4.0 mph

Today
High -- | Low -- °F
--% Chance of Precip.
Yesterday
High -- | Low -- °F
Precip. -- in
6:38 AM 7:32 PM
Waning Gibbous, 91% visible
Pressure 30.04 in
Visibility 10.0 miles
Clouds Few 1100 ft
Overcast 8000 ft
Heat Index 78 °F
Dew Point 75 °F
Humidity 94%
Rainfall 0.10 in
Snow Depth Not available.
UV 0 out of 12
Pollen 8.40 out of 12
Air Quality Not available.
Flu Activity Not available.
METAR KMRH 010458Z AUTO 00000KT 10SM FEW011 OVC080 25/25 A3004 RMK AO2 RAB0359E25 SLP172 P0007 T02500250 402670228 TSNO
Pressure 30.04 in
Visibility 10.0 miles
Clouds Few 1100 ft
Overcast 8000 ft
Heat Index 78 °F
Dew Point 75 °F
Humidity 94%
Rainfall 0.10 in
Snow Depth Not available.
UV 0 out of 12
Pollen 8.40 out of 12
Air Quality Not available.
Flu Activity Not available.
METAR KMRH 010458Z AUTO 00000KT 10SM FEW011 OVC080 25/25 A3004 RMK AO2 RAB0359E25 SLP172 P0007 T02500250 402670228 TSNO

10-Day Weather Forecast

×

Almanac

Astronomy

Sep. 01, 2015 Rise Set
Actual Time
Civil Twilight
Nautical Twilight
Astronomical Twilight
Moon
Length of Visible Light
Length of Day
Tomorrow will be .
, % of the Moon is Illuminated

Today's Extremes

State Highs State Lows

Community

WunderPhotos

Upload Photos

1,851,478 photos uploaded!

WunderBlogs® & News

Nearby

Air Quality

  Air Quality AQ Index Pollutant
Not available.

Snow Depth

Station Depth Elevation

Earthquake Activity

City Distance Mag. Time & Date
Minimum magnitude displayed is 2.5.

Coastal Water Temperatures

Place Temperature

Stations

Nearby Weather Stations

Station Location Temp. Windchill Dew Point Humidity Wind Precip. Elev Updated Type